Time;durP1;ratioP1;P1;durP2;ratioP2;P2;SDS_P1;SDS_P2;PMS_P1;PMS_P2;Temp;Humidity;BMP_temperature;BMP_pressure;BME280_temperature;BME280_humidity;BME280_pressure;Samples;Min_cycle;Max_cycle;Signal;HPM_P1;HPM_P2
2024/01/07 06:00:02;;;;;;;18.07;14.00;;;;;;;;;;1748201;28;20535;-75
2024/01/07 06:00:54;;;;;;;16.75;14.95;;;;;;;;;;1746318;28;20697;-75
2024/01/07 06:01:46;;;;;;;17.10;14.77;;;;;;;;;;1741109;28;20702;-76
2024/01/07 06:02:38;;;;;;;18.85;14.38;;;;;;;;;;1741530;28;20206;-75
2024/01/07 06:03:30;;;;;;;17.65;15.85;;;;;;;;;;1747966;28;20199;-75
2024/01/07 06:04:21;;;;;;;17.88;15.95;;;;;;;;;;1748077;28;20206;-75
2024/01/07 06:05:12;;;;;;;17.20;15.00;;;;;;;;;;1747956;28;20206;-75
2024/01/07 06:06:05;;;;;;;16.60;14.85;;;;;;;;;;1748015;28;20207;-75
2024/01/07 06:06:56;;;;;;;16.73;14.95;;;;;;;;;;1743576;28;20203;-74
2024/01/07 06:07:47;;;;;;;16.70;13.85;;;;;;;;;;1741243;28;20565;-75
2024/01/07 06:08:39;;;;;;;18.10;15.18;;;;;;;;;;1743938;28;20206;-75
2024/01/07 06:09:30;;;;;;;16.23;14.50;;;;;;;;;;1747672;28;20198;-75
2024/01/07 06:10:21;;;;;;;16.17;14.48;;;;;;;;;;1746702;28;20252;-75
2024/01/07 06:11:18;;;;;;;17.35;15.50;;;;;;;;;;1741226;28;20541;-75
2024/01/07 06:12:09;;;;;;;18.08;15.07;;;;;;;;;;1741498;28;20226;-74
2024/01/07 06:13:02;;;;;;;16.55;14.80;;;;;;;;;;1747982;28;20221;-75
2024/01/07 06:13:54;;;;;;;18.45;16.50;;;;;;;;;;1747974;28;20244;-75
2024/01/07 06:14:46;;;;;;;16.20;14.50;;;;;;;;;;1741814;28;20298;-75
2024/01/07 06:15:37;;;;;;;17.23;15.02;;;;;;;;;;1741037;28;20199;-75
2024/01/07 06:16:29;;;;;;;17.75;15.85;;;;;;;;;;1741749;28;20278;-75
2024/01/07 06:17:21;;;;;;;14.02;12.23;;;;;;;;;;1741057;28;20218;-75
2024/01/07 06:18:12;;;;;;;15.93;14.30;;;;;;;;;;1741617;28;20205;-75
2024/01/07 06:19:03;;;;;;;15.80;14.20;;;;;;;;;;1740724;28;20195;-74
2024/01/07 06:19:55;;;;;;;17.30;15.07;;;;;;;;;;1742623;28;20199;-75
2024/01/07 06:20:46;;;;;;;15.10;13.50;;;;;;;;;;1748093;28;20831;-75
2024/01/07 06:21:39;;;;;;;15.98;14.38;;;;;;;;;;1747940;28;20198;-75
2024/01/07 06:22:30;;;;;;;16.40;14.80;;;;;;;;;;1747990;28;20666;-75
2024/01/07 06:23:21;;;;;;;17.70;15.93;;;;;;;;;;1747978;28;20198;-75
2024/01/07 06:24:13;;;;;;;17.50;15.70;;;;;;;;;;1742441;28;20280;-75
2024/01/07 06:25:05;;;;;;;15.82;14.23;;;;;;;;;;1741038;28;20199;-74
2024/01/07 06:25:56;;;;;;;17.10;15.15;;;;;;;;;;1745189;28;20226;-75
2024/01/07 06:26:48;;;;;;;16.08;14.48;;;;;;;;;;1748027;28;20564;-75
2024/01/07 06:27:39;;;;;;;17.38;15.55;;;;;;;;;;1745349;28;20206;-75
2024/01/07 06:28:30;;;;;;;16.02;14.52;;;;;;;;;;1741084;28;20663;-75
2024/01/07 06:29:22;;;;;;;17.52;15.68;;;;;;;;;;1741530;28;20640;-75
2024/01/07 06:30:14;;;;;;;15.90;14.30;;;;;;;;;;1746533;28;20667;-75
2024/01/07 06:31:06;;;;;;;16.60;14.93;;;;;;;;;;1747739;28;20202;-75
2024/01/07 06:31:58;;;;;;;17.25;15.45;;;;;;;;;;1741322;28;20682;-75
2024/01/07 06:32:49;;;;;;;15.15;13.73;;;;;;;;;;1741063;28;20203;-75
2024/01/07 06:33:42;;;;;;;17.63;15.43;;;;;;;;;;1746169;28;20198;-75
2024/01/07 06:34:33;;;;;;;17.85;15.27;;;;;;;;;;1744768;28;20245;-75
2024/01/07 06:35:26;;;;;;;18.38;15.90;;;;;;;;;;1744852;28;20290;-75
2024/01/07 06:36:17;;;;;;;16.90;14.98;;;;;;;;;;1747957;28;20213;-75
2024/01/07 06:37:10;;;;;;;17.20;15.40;;;;;;;;;;1747935;28;20202;-75
2024/01/07 06:38:01;;;;;;;17.83;16.02;;;;;;;;;;1747981;28;20206;-75
2024/01/07 06:38:52;;;;;;;16.35;14.40;;;;;;;;;;1746585;28;20187;-75
2024/01/07 06:39:44;;;;;;;17.38;15.60;;;;;;;;;;1740832;28;20278;-75
2024/01/07 06:40:35;;;;;;;18.35;15.55;;;;;;;;;;1740986;28;20203;-76
2024/01/07 06:41:26;;;;;;;17.50;15.65;;;;;;;;;;1746672;28;20202;-75
2024/01/07 06:42:19;;;;;;;17.45;15.70;;;;;;;;;;1747783;28;20298;-75
2024/01/07 06:43:10;;;;;;;18.33;15.50;;;;;;;;;;1743047;28;20199;-75
2024/01/07 06:44:01;;;;;;;17.55;15.70;;;;;;;;;;1741043;28;20261;-75
2024/01/07 06:44:53;;;;;;;17.63;15.73;;;;;;;;;;1744139;28;20201;-75
2024/01/07 06:45:44;;;;;;;18.48;16.58;;;;;;;;;;1747249;28;20227;-75
2024/01/07 06:46:36;;;;;;;17.30;15.40;;;;;;;;;;1746226;28;20202;-75
2024/01/07 06:47:29;;;;;;;17.73;15.82;;;;;;;;;;1741082;28;20203;-76
2024/01/07 06:48:20;;;;;;;17.85;16.02;;;;;;;;;;1741243;28;20203;-75
2024/01/07 06:49:12;;;;;;;18.73;16.73;;;;;;;;;;1747508;28;20655;-75
2024/01/07 06:50:03;;;;;;;17.85;16.15;;;;;;;;;;1747967;28;20206;-75
2024/01/07 06:50:54;;;;;;;18.30;16.40;;;;;;;;;;1747549;28;20619;-76
2024/01/07 06:51:46;;;;;;;17.13;15.43;;;;;;;;;;1747888;28;20202;-75
2024/01/07 06:52:37;;;;;;;17.63;15.73;;;;;;;;;;1743590;28;20210;-75
2024/01/07 06:53:29;;;;;;;18.40;16.48;;;;;;;;;;1740994;28;20207;-75
2024/01/07 06:54:21;;;;;;;17.65;15.88;;;;;;;;;;1743495;28;20230;-75
2024/01/07 06:55:12;;;;;;;17.05;14.77;;;;;;;;;;1747921;28;20572;-75
2024/01/07 06:56:03;;;;;;;17.02;15.32;;;;;;;;;;1746139;28;20217;-75
2024/01/07 06:56:55;;;;;;;17.73;15.93;;;;;;;;;;1740954;28;20199;-74
2024/01/07 06:57:46;;;;;;;17.20;15.50;;;;;;;;;;1740963;28;20211;-75
2024/01/07 06:58:38;;;;;;;19.33;15.20;;;;;;;;;;1747505;28;20206;-75
2024/01/07 06:59:29;;;;;;;17.80;15.90;;;;;;;;;;1748461;28;20687;-75
2024/01/07 07:00:21;;;;;;;17.02;15.25;;;;;;;;;;1749224;28;20255;-75
2024/01/07 07:01:13;;;;;;;17.23;15.52;;;;;;;;;;1749245;28;20214;-75
2024/01/07 07:02:04;;;;;;;16.75;15.00;;;;;;;;;;1745542;28;20260;-75
2024/01/07 07:02:57;;;;;;;16.73;15.10;;;;;;;;;;1742380;28;20848;-75
2024/01/07 07:03:49;;;;;;;17.60;15.80;;;;;;;;;;1744559;28;20589;-74
2024/01/07 07:04:41;;;;;;;16.67;14.98;;;;;;;;;;1749172;28;20206;-75
2024/01/07 07:05:32;;;;;;;18.25;16.35;;;;;;;;;;1748395;28;20217;-75
2024/01/07 07:06:24;;;;;;;17.10;15.30;;;;;;;;;;1742315;28;20203;-75
2024/01/07 07:07:16;;;;;;;17.15;15.38;;;;;;;;;;1742439;28;20203;-75
2024/01/07 07:08:07;;;;;;;16.77;15.18;;;;;;;;;;1748727;28;20292;-75
2024/01/07 07:08:59;;;;;;;17.90;16.10;;;;;;;;;;1748860;28;20209;-75
2024/01/07 07:09:51;;;;;;;17.77;15.95;;;;;;;;;;1744330;28;20199;-75
2024/01/07 07:10:43;;;;;;;18.02;16.25;;;;;;;;;;1742353;28;20287;-75
2024/01/07 07:11:35;;;;;;;18.02;15.80;;;;;;;;;;1742321;28;20203;-75
2024/01/07 07:12:26;;;;;;;17.00;15.27;;;;;;;;;;1746884;28;20229;-75
2024/01/07 07:13:17;;;;;;;17.75;16.05;;;;;;;;;;1747285;28;20198;-74
2024/01/07 07:14:09;;;;;;;17.30;15.48;;;;;;;;;;1742167;28;20662;-75
2024/01/07 07:15:00;;;;;;;18.48;16.58;;;;;;;;;;1742460;28;20207;-74
2024/01/07 07:15:52;;;;;;;16.60;14.90;;;;;;;;;;1749213;28;20692;-74
2024/01/07 07:16:43;;;;;;;17.65;15.98;;;;;;;;;;1745237;28;20685;-74
2024/01/07 07:17:34;;;;;;;17.05;15.45;;;;;;;;;;1747862;28;20206;-74
2024/01/07 07:18:28;;;;;;;17.75;15.98;;;;;;;;;;1749246;28;20229;-74
2024/01/07 07:19:19;;;;;;;16.20;13.93;;;;;;;;;;1748752;28;20671;-74
2024/01/07 07:20:10;;;;;;;16.95;15.30;;;;;;;;;;1749104;28;20259;-74
2024/01/07 07:21:02;;;;;;;15.50;13.70;;;;;;;;;;1746306;28;20213;-74
2024/01/07 07:21:53;;;;;;;17.95;15.50;;;;;;;;;;1742098;28;20210;-75
2024/01/07 07:22:44;;;;;;;17.73;15.85;;;;;;;;;;1743479;28;20195;-74
2024/01/07 07:23:36;;;;;;;14.30;12.80;;;;;;;;;;1749238;28;20213;-74
2024/01/07 07:24:27;;;;;;;17.92;15.60;;;;;;;;;;1749109;28;20203;-75
2024/01/07 07:25:18;;;;;;;17.88;16.25;;;;;;;;;;1742255;28;20257;-74
2024/01/07 07:26:11;;;;;;;16.40;14.80;;;;;;;;;;1742183;28;20219;-76
2024/01/07 07:27:02;;;;;;;17.13;15.43;;;;;;;;;;1747341;28;20682;-76
2024/01/07 07:27:53;;;;;;;17.45;15.75;;;;;;;;;;1749106;28;20580;-76
2024/01/07 07:28:45;;;;;;;17.33;15.65;;;;;;;;;;1746031;28;20674;-76
2024/01/07 07:29:36;;;;;;;18.08;16.27;;;;;;;;;;1748731;28;20699;-76
2024/01/07 07:30:27;;;;;;;17.77;15.98;;;;;;;;;;1747085;28;20255;-75
2024/01/07 07:31:19;;;;;;;18.30;15.70;;;;;;;;;;1742059;28;20195;-77
2024/01/07 07:32:10;;;;;;;19.85;17.13;;;;;;;;;;1742511;28;20223;-77
2024/01/07 07:33:02;;;;;;;19.20;17.23;;;;;;;;;;1749109;28;20203;-77
2024/01/07 07:33:55;;;;;;;17.23;15.55;;;;;;;;;;1749060;28;20820;-77
2024/01/07 07:34:46;;;;;;;18.45;16.60;;;;;;;;;;1748940;28;20210;-76
2024/01/07 07:35:40;;;;;;;17.08;15.30;;;;;;;;;;1749011;28;20202;-76
2024/01/07 07:36:32;;;;;;;16.77;15.07;;;;;;;;;;1744037;28;20659;-77
2024/01/07 07:37:25;;;;;;;15.57;13.98;;;;;;;;;;1742029;28;20282;-77
2024/01/07 07:38:16;;;;;;;14.10;12.60;;;;;;;;;;1745887;28;20210;-76
2024/01/07 07:39:07;;;;;;;15.88;14.18;;;;;;;;;;1748679;28;20202;-76
2024/01/07 07:39:59;;;;;;;15.88;14.32;;;;;;;;;;1747166;28;20771;-75
2024/01/07 07:40:52;;;;;;;14.68;13.25;;;;;;;;;;1742086;28;20698;-75
2024/01/07 07:41:44;;;;;;;14.52;13.07;;;;;;;;;;1742604;28;20199;-75
2024/01/07 07:42:35;;;;;;;15.10;13.60;;;;;;;;;;1748988;28;20199;-76
2024/01/07 07:43:28;;;;;;;13.88;12.60;;;;;;;;;;1748998;28;20591;-76
2024/01/07 07:44:19;;;;;;;15.65;14.23;;;;;;;;;;1742551;28;20248;-76
2024/01/07 07:45:11;;;;;;;10.73;9.73;;;;;;;;;;1742129;28;20209;-76
2024/01/07 07:46:03;;;;;;;14.48;13.18;;;;;;;;;;1743346;28;20251;-76
2024/01/07 07:46:54;;;;;;;15.05;13.63;;;;;;;;;;1742657;28;20202;-75
2024/01/07 07:47:46;;;;;;;14.88;13.48;;;;;;;;;;1745262;28;20285;-76
2024/01/07 07:48:37;;;;;;;14.50;13.18;;;;;;;;;;1748303;28;20198;-77
2024/01/07 07:49:30;;;;;;;14.70;13.18;;;;;;;;;;1748691;28;20693;-76
2024/01/07 07:50:21;;;;;;;13.95;12.65;;;;;;;;;;1742086;28;20213;-76
2024/01/07 07:51:14;;;;;;;15.40;13.95;;;;;;;;;;1747993;28;20195;-76
2024/01/07 07:52:05;;;;;;;15.27;13.82;;;;;;;;;;1748966;28;20234;-76
2024/01/07 07:52:56;;;;;;;14.90;13.50;;;;;;;;;;1748948;28;20673;-76
2024/01/07 07:53:48;;;;;;;15.18;13.82;;;;;;;;;;1742968;28;20264;-76
2024/01/07 07:54:39;;;;;;;14.82;13.43;;;;;;;;;;1742147;28;20660;-76
2024/01/07 07:55:30;;;;;;;14.15;12.75;;;;;;;;;;1746333;28;20722;-75
2024/01/07 07:56:22;;;;;;;14.98;13.57;;;;;;;;;;1748901;28;20198;-76
2024/01/07 07:57:13;;;;;;;14.68;13.18;;;;;;;;;;1746186;28;20218;-76
2024/01/07 07:58:04;;;;;;;14.20;12.70;;;;;;;;;;1742089;28;20199;-75
2024/01/07 07:58:56;;;;;;;13.70;12.40;;;;;;;;;;1742945;28;20195;-75
2024/01/07 07:59:49;;;;;;;14.00;12.70;;;;;;;;;;1748867;28;20206;-75
2024/01/07 08:00:40;;;;;;;14.73;13.32;;;;;;;;;;1748853;28;20205;-76
2024/01/07 08:01:32;;;;;;;14.20;12.90;;;;;;;;;;1741978;28;20199;-76
2024/01/07 08:02:23;;;;;;;13.85;12.55;;;;;;;;;;1741935;28;20231;-75
2024/01/07 08:03:15;;;;;;;14.85;13.38;;;;;;;;;;1746164;28;20245;-75
2024/01/07 08:04:07;;;;;;;14.13;12.63;;;;;;;;;;1748983;28;20585;-76
2024/01/07 08:05:00;;;;;;;14.32;12.95;;;;;;;;;;1744920;28;20209;-76
2024/01/07 08:05:52;;;;;;;13.25;11.95;;;;;;;;;;1741829;28;20203;-75
2024/01/07 08:06:44;;;;;;;13.25;12.00;;;;;;;;;;1744530;28;20210;-76
2024/01/07 08:07:37;;;;;;;14.20;12.80;;;;;;;;;;1748865;28;20199;-76
2024/01/07 08:08:28;;;;;;;15.10;13.60;;;;;;;;;;1748775;28;20202;-76
2024/01/07 08:09:19;;;;;;;14.40;13.00;;;;;;;;;;1748444;28;20256;-76
2024/01/07 08:10:11;;;;;;;13.90;12.60;;;;;;;;;;1748727;28;20202;-75
2024/01/07 08:11:02;;;;;;;13.63;12.32;;;;;;;;;;1741103;28;20210;-76
2024/01/07 08:11:54;;;;;;;15.95;12.98;;;;;;;;;;1741914;28;20219;-75
2024/01/07 08:12:45;;;;;;;11.75;10.57;;;;;;;;;;1747074;28;20203;-75
2024/01/07 08:13:39;;;;;;;13.80;12.43;;;;;;;;;;1748645;28;20233;-75
2024/01/07 08:14:30;;;;;;;13.20;11.90;;;;;;;;;;1744831;28;20218;-75
2024/01/07 08:15:21;;;;;;;14.45;13.00;;;;;;;;;;1741988;28;20199;-75
2024/01/07 08:16:13;;;;;;;12.93;11.63;;;;;;;;;;1744164;28;20199;-74
2024/01/07 08:17:04;;;;;;;14.50;13.10;;;;;;;;;;1748796;28;20206;-74
2024/01/07 08:17:55;;;;;;;13.68;12.32;;;;;;;;;;1748030;28;20198;-75
2024/01/07 08:18:48;;;;;;;13.65;12.25;;;;;;;;;;1741902;28;20278;-74
2024/01/07 08:19:39;;;;;;;14.32;12.93;;;;;;;;;;1747227;28;20195;-74
2024/01/07 08:20:31;;;;;;;14.85;13.40;;;;;;;;;;1742424;28;20203;-75
2024/01/07 08:21:24;;;;;;;13.60;12.15;;;;;;;;;;1741907;28;20250;-74
2024/01/07 08:22:15;;;;;;;15.13;12.75;;;;;;;;;;1746850;28;20711;-73
2024/01/07 08:23:07;;;;;;;14.93;12.48;;;;;;;;;;1748775;28;20233;-74
2024/01/07 08:23:59;;;;;;;12.52;11.15;;;;;;;;;;1748594;28;20296;-74
2024/01/07 08:24:50;;;;;;;12.68;11.57;;;;;;;;;;1748331;28;20214;-74
2024/01/07 08:25:41;;;;;;;13.80;12.43;;;;;;;;;;1746129;28;20205;-74
2024/01/07 08:26:33;;;;;;;13.60;12.20;;;;;;;;;;1741185;28;20276;-74
2024/01/07 08:27:25;;;;;;;16.55;12.35;;;;;;;;;;1741655;28;20203;-74
2024/01/07 08:28:16;;;;;;;11.95;10.75;;;;;;;;;;1748007;28;20206;-74
2024/01/07 08:29:08;;;;;;;13.25;11.27;;;;;;;;;;1747820;28;20230;-74
2024/01/07 08:29:59;;;;;;;13.55;12.00;;;;;;;;;;1742075;28;20207;-74
2024/01/07 08:30:53;;;;;;;12.43;11.20;;;;;;;;;;1741227;28;20206;-74
2024/01/07 08:31:45;;;;;;;14.27;12.90;;;;;;;;;;1745644;28;20209;-74
2024/01/07 08:32:36;;;;;;;13.45;12.05;;;;;;;;;;1747966;28;20209;-73
2024/01/07 08:33:28;;;;;;;12.95;11.82;;;;;;;;;;1744793;28;20277;-74
2024/01/07 08:34:20;;;;;;;12.32;11.13;;;;;;;;;;1741036;28;20717;-74
2024/01/07 08:35:12;;;;;;;10.90;9.43;;;;;;;;;;1742752;28;20694;-74
2024/01/07 08:36:05;;;;;;;12.77;11.00;;;;;;;;;;1746406;28;20213;-74
2024/01/07 08:36:56;;;;;;;12.50;11.05;;;;;;;;;;1747150;28;20785;-74
2024/01/07 08:37:49;;;;;;;13.38;11.68;;;;;;;;;;1741235;28;20718;-75
2024/01/07 08:38:40;;;;;;;12.80;11.50;;;;;;;;;;1741050;28;20290;-74
2024/01/07 08:39:32;;;;;;;14.00;11.23;;;;;;;;;;1746639;28;20206;-73
2024/01/07 08:40:24;;;;;;;11.90;10.70;;;;;;;;;;1748267;28;20213;-74
2024/01/07 08:41:16;;;;;;;11.65;10.55;;;;;;;;;;1748612;28;20582;-74
2024/01/07 08:42:08;;;;;;;11.70;10.60;;;;;;;;;;1748634;28;20218;-74
2024/01/07 08:42:59;;;;;;;11.75;10.60;;;;;;;;;;1745442;28;20207;-74
2024/01/07 08:43:50;;;;;;;11.60;10.48;;;;;;;;;;1741670;28;20199;-74
2024/01/07 08:44:42;;;;;;;11.30;10.23;;;;;;;;;;1743079;28;20203;-74
2024/01/07 08:45:33;;;;;;;12.75;11.43;;;;;;;;;;1748653;28;20213;-74
2024/01/07 08:46:24;;;;;;;12.43;11.23;;;;;;;;;;1748607;28;20222;-74
2024/01/07 08:47:17;;;;;;;11.90;10.80;;;;;;;;;;1741730;28;20651;-74
2024/01/07 08:48:08;;;;;;;12.35;11.15;;;;;;;;;;1741816;28;20199;-74
2024/01/07 08:48:59;;;;;;;11.38;10.18;;;;;;;;;;1746767;28;20201;-74
2024/01/07 08:49:53;;;;;;;11.25;10.05;;;;;;;;;;1748624;28;20683;-74
2024/01/07 08:50:46;;;;;;;11.60;10.40;;;;;;;;;;1744439;28;20687;-74
2024/01/07 08:51:39;;;;;;;10.98;9.88;;;;;;;;;;1741689;28;20207;-73
2024/01/07 08:52:30;;;;;;;11.50;10.30;;;;;;;;;;1742999;28;20233;-74
2024/01/07 08:53:22;;;;;;;11.52;10.43;;;;;;;;;;1748150;28;20195;-74
2024/01/07 08:54:14;;;;;;;12.23;10.50;;;;;;;;;;1746934;28;20237;-74
2024/01/07 08:55:06;;;;;;;14.18;10.73;;;;;;;;;;1741657;28;20192;-74
2024/01/07 08:55:57;;;;;;;11.35;10.25;;;;;;;;;;1741676;28;20213;-74
2024/01/07 08:56:49;;;;;;;11.30;10.20;;;;;;;;;;1748484;28;20195;-75
2024/01/07 08:57:40;;;;;;;11.80;10.65;;;;;;;;;;1748542;28;20202;-74
2024/01/07 08:58:31;;;;;;;12.05;10.85;;;;;;;;;;1748706;28;20232;-75
2024/01/07 08:59:23;;;;;;;11.70;10.60;;;;;;;;;;1748113;28;20202;-74
2024/01/07 09:00:15;;;;;;;11.35;10.25;;;;;;;;;;1744443;28;20672;-74
2024/01/07 09:01:07;;;;;;;11.60;10.40;;;;;;;;;;1741581;28;20202;-74
2024/01/07 09:01:58;;;;;;;12.00;10.80;;;;;;;;;;1744082;28;20211;-74
2024/01/07 09:02:50;;;;;;;11.55;10.45;;;;;;;;;;1748547;28;20685;-74
2024/01/07 09:03:42;;;;;;;12.15;10.90;;;;;;;;;;1747360;28;20213;-74
2024/01/07 09:04:33;;;;;;;12.07;10.88;;;;;;;;;;1741637;28;20203;-74
2024/01/07 09:05:25;;;;;;;11.40;10.30;;;;;;;;;;1742355;28;20199;-74
2024/01/07 09:06:16;;;;;;;12.30;11.10;;;;;;;;;;1748390;28;20214;-74
2024/01/07 09:07:09;;;;;;;10.77;9.68;;;;;;;;;;1748524;28;20211;-74
2024/01/07 09:08:01;;;;;;;12.90;11.70;;;;;;;;;;1743199;28;20230;-74
2024/01/07 09:08:53;;;;;;;12.73;11.43;;;;;;;;;;1741343;28;20203;-74
2024/01/07 09:09:44;;;;;;;13.30;11.48;;;;;;;;;;1744197;28;20191;-74
2024/01/07 09:10:36;;;;;;;11.50;10.27;;;;;;;;;;1748518;28;20225;-75
2024/01/07 09:11:27;;;;;;;10.98;9.93;;;;;;;;;;1746246;28;20206;-74
2024/01/07 09:12:20;;;;;;;11.90;10.60;;;;;;;;;;1741435;28;20226;-75
2024/01/07 09:13:12;;;;;;;12.25;10.98;;;;;;;;;;1741616;28;20206;-74
2024/01/07 09:14:03;;;;;;;12.65;11.45;;;;;;;;;;1741494;28;20203;-73
2024/01/07 09:14:55;;;;;;;12.18;10.85;;;;;;;;;;1741468;28;20205;-74
2024/01/07 09:15:46;;;;;;;13.73;11.27;;;;;;;;;;1747711;28;20214;-73
2024/01/07 09:16:38;;;;;;;13.15;11.75;;;;;;;;;;1747981;28;20282;-74
2024/01/07 09:17:29;;;;;;;12.77;11.48;;;;;;;;;;1748298;28;20214;-74
2024/01/07 09:18:21;;;;;;;11.93;10.73;;;;;;;;;;1748337;28;20198;-74
2024/01/07 09:19:13;;;;;;;13.02;11.40;;;;;;;;;;1747970;28;20310;-76
2024/01/07 09:20:07;;;;;;;12.70;11.32;;;;;;;;;;1748434;28;20207;-75
2024/01/07 09:20:59;;;;;;;12.25;11.05;;;;;;;;;;1745997;28;20206;-75
2024/01/07 09:21:52;;;;;;;12.15;10.95;;;;;;;;;;1741233;28;20234;-75
2024/01/07 09:22:45;;;;;;;13.38;11.05;;;;;;;;;;1742297;28;20699;-75
2024/01/07 09:23:36;;;;;;;12.60;10.80;;;;;;;;;;1748265;28;20207;-75
2024/01/07 09:24:29;;;;;;;11.73;10.52;;;;;;;;;;1748381;28;20206;-75
2024/01/07 09:25:20;;;;;;;11.95;10.73;;;;;;;;;;1741504;28;20218;-75
2024/01/07 09:26:12;;;;;;;12.77;11.43;;;;;;;;;;1741379;28;20206;-75
2024/01/07 09:27:03;;;;;;;11.60;10.32;;;;;;;;;;1746629;28;20601;-75
2024/01/07 09:27:54;;;;;;;12.38;11.07;;;;;;;;;;1748249;28;20205;-75
2024/01/07 09:28:46;;;;;;;12.35;10.45;;;;;;;;;;1744674;28;20199;-75
2024/01/07 09:29:37;;;;;;;11.95;10.77;;;;;;;;;;1741002;28;20227;-75
2024/01/07 09:30:29;;;;;;;12.18;10.98;;;;;;;;;;1742267;28;20191;-75
2024/01/07 09:31:20;;;;;;;11.60;10.40;;;;;;;;;;1741452;28;20199;-75
2024/01/07 09:32:12;;;;;;;14.05;10.43;;;;;;;;;;1741632;28;20222;-75
2024/01/07 09:33:04;;;;;;;11.50;10.18;;;;;;;;;;1748302;28;20201;-75
2024/01/07 09:33:55;;;;;;;11.77;10.30;;;;;;;;;;1748170;28;20206;-75
2024/01/07 09:34:46;;;;;;;11.15;10.05;;;;;;;;;;1748213;28;20255;-74
2024/01/07 09:35:38;;;;;;;11.48;9.25;;;;;;;;;;1748208;28;20251;-75
2024/01/07 09:36:29;;;;;;;9.68;8.75;;;;;;;;;;1743887;28;20203;-74
2024/01/07 09:37:21;;;;;;;11.57;10.13;;;;;;;;;;1741256;28;20195;-74
2024/01/07 09:38:13;;;;;;;10.20;9.25;;;;;;;;;;1744162;28;20215;-74
2024/01/07 09:39:06;;;;;;;9.13;8.23;;;;;;;;;;1747806;28;20213;-74
2024/01/07 09:39:57;;;;;;;9.65;8.70;;;;;;;;;;1746560;28;20234;-74
2024/01/07 09:40:49;;;;;;;9.75;8.23;;;;;;;;;;1741299;28;20204;-74
2024/01/07 09:41:40;;;;;;;9.25;8.40;;;;;;;;;;1741350;28;20214;-74
2024/01/07 09:42:31;;;;;;;9.30;8.40;;;;;;;;;;1748147;28;20721;-74
2024/01/07 09:43:24;;;;;;;10.10;8.65;;;;;;;;;;1748079;28;20336;-74
2024/01/07 09:44:15;;;;;;;9.10;8.20;;;;;;;;;;1742554;28;20210;-74
2024/01/07 09:45:06;;;;;;;11.40;8.23;;;;;;;;;;1741270;28;20256;-74
2024/01/07 09:45:59;;;;;;;8.90;8.10;;;;;;;;;;1745260;28;20858;-74
2024/01/07 09:46:51;;;;;;;8.02;7.32;;;;;;;;;;1746340;28;20219;-74
2024/01/07 09:47:45;;;;;;;7.85;7.00;;;;;;;;;;1745276;28;20198;-73
2024/01/07 09:48:37;;;;;;;8.35;7.55;;;;;;;;;;1741219;28;20227;-74
2024/01/07 09:49:28;;;;;;;7.97;7.13;;;;;;;;;;1742431;28;20203;-73
2024/01/07 09:50:20;;;;;;;9.77;7.88;;;;;;;;;;1748106;28;20811;-74
2024/01/07 09:51:12;;;;;;;8.25;7.45;;;;;;;;;;1747183;28;20679;-74
2024/01/07 09:52:04;;;;;;;8.02;7.22;;;;;;;;;;1741187;28;20234;-73
2024/01/07 09:52:57;;;;;;;8.57;7.78;;;;;;;;;;1741178;28;20202;-73
2024/01/07 09:53:53;;;;;;;10.20;7.63;;;;;;;;;;1747163;28;20186;-73
2024/01/07 09:54:48;;;;;;;7.80;7.00;;;;;;;;;;1748180;28;20686;-73
2024/01/07 09:55:45;;;;;;;8.10;7.40;;;;;;;;;;1742651;28;20664;-73
2024/01/07 09:56:37;;;;;;;9.60;7.70;;;;;;;;;;1741252;28;20869;-73
2024/01/07 09:57:28;;;;;;;8.38;7.57;;;;;;;;;;1745823;28;20213;-73
2024/01/07 09:58:20;;;;;;;8.25;7.45;;;;;;;;;;1748079;28;20209;-73
2024/01/07 09:59:11;;;;;;;8.70;7.82;;;;;;;;;;1744630;28;20222;-73
2024/01/07 10:00:04;;;;;;;8.48;7.68;;;;;;;;;;1741176;28;20273;-73
2024/01/07 10:00:56;;;;;;;8.98;7.60;;;;;;;;;;1741545;28;20229;-73
2024/01/07 10:01:47;;;;;;;8.85;7.95;;;;;;;;;;1741186;28;20210;-74
2024/01/07 10:02:41;;;;;;;7.65;6.95;;;;;;;;;;1741331;28;20203;-74
2024/01/07 10:03:33;;;;;;;8.88;7.97;;;;;;;;;;1748043;28;20202;-73
2024/01/07 10:04:24;;;;;;;7.93;7.13;;;;;;;;;;1748050;28;20221;-74
2024/01/07 10:05:16;;;;;;;9.23;8.07;;;;;;;;;;1748107;28;20682;-74
2024/01/07 10:06:07;;;;;;;8.70;7.80;;;;;;;;;;1748053;28;20213;-74
2024/01/07 10:06:59;;;;;;;8.02;7.30;;;;;;;;;;1743341;28;20594;-74
2024/01/07 10:07:54;;;;;;;9.32;7.85;;;;;;;;;;1741168;28;20280;-74
2024/01/07 10:08:45;;;;;;;9.25;7.68;;;;;;;;;;1744678;28;20210;-73
2024/01/07 10:09:38;;;;;;;7.75;6.95;;;;;;;;;;1747668;28;20644;-73
2024/01/07 10:10:29;;;;;;;8.10;7.30;;;;;;;;;;1745928;28;20198;-74
2024/01/07 10:11:22;;;;;;;8.82;7.90;;;;;;;;;;1741167;28;20550;-73
2024/01/07 10:12:14;;;;;;;8.20;7.50;;;;;;;;;;1741742;28;20305;-73
2024/01/07 10:13:05;;;;;;;8.35;7.55;;;;;;;;;;1747982;28;20210;-74
2024/01/07 10:13:56;;;;;;;9.10;8.20;;;;;;;;;;1748045;28;20190;-73
2024/01/07 10:14:48;;;;;;;9.10;8.20;;;;;;;;;;1741885;28;20253;-73
2024/01/07 10:15:39;;;;;;;10.73;7.13;;;;;;;;;;1741087;28;20210;-73
2024/01/07 10:16:32;;;;;;;7.82;7.03;;;;;;;;;;1745714;28;20203;-74
2024/01/07 10:17:27;;;;;;;8.52;7.65;;;;;;;;;;1747607;28;20206;-73
2024/01/07 10:18:19;;;;;;;10.02;7.65;;;;;;;;;;1743480;28;20238;-73
2024/01/07 10:19:10;;;;;;;8.90;7.38;;;;;;;;;;1740741;28;20203;-74
2024/01/07 10:20:02;;;;;;;8.60;7.80;;;;;;;;;;1743094;28;20337;-73
2024/01/07 10:20:55;;;;;;;8.75;7.85;;;;;;;;;;1748081;28;20739;-74
2024/01/07 10:21:46;;;;;;;9.15;7.82;;;;;;;;;;1747896;28;20194;-74
2024/01/07 10:22:38;;;;;;;7.78;7.03;;;;;;;;;;1748028;28;20541;-74
2024/01/07 10:23:29;;;;;;;7.20;6.50;;;;;;;;;;1748046;28;20263;-72
2024/01/07 10:24:20;;;;;;;7.82;7.03;;;;;;;;;;1741668;28;20313;-73
2024/01/07 10:25:16;;;;;;;7.70;7.00;;;;;;;;;;1741175;28;20577;-73
2024/01/07 10:26:07;;;;;;;8.45;7.65;;;;;;;;;;1746328;28;20209;-73
2024/01/07 10:26:58;;;;;;;8.00;7.30;;;;;;;;;;1747901;28;20229;-73
2024/01/07 10:27:50;;;;;;;8.23;7.53;;;;;;;;;;1744426;28;20561;-72
2024/01/07 10:28:43;;;;;;;7.70;6.85;;;;;;;;;;1740980;28;20203;-72
2024/01/07 10:29:34;;;;;;;8.07;7.28;;;;;;;;;;1742944;28;20292;-72
2024/01/07 10:30:26;;;;;;;8.60;7.75;;;;;;;;;;1747471;28;20248;-73
2024/01/07 10:31:17;;;;;;;49.47;44.03;;;;;;;;;;1747180;28;20682;-75
2024/01/07 10:32:08;;;;;;;14.68;13.15;;;;;;;;;;1741364;28;20210;-73
2024/01/07 10:33:01;;;;;;;12.52;11.23;;;;;;;;;;1741009;28;20261;-73
2024/01/07 10:33:52;;;;;;;17.27;15.52;;;;;;;;;;1746830;28;20210;-73
2024/01/07 10:34:46;;;;;;;13.88;12.30;;;;;;;;;;1747928;28;20199;-73
2024/01/07 10:35:39;;;;;;;11.90;10.20;;;;;;;;;;1747923;28;20260;-73
2024/01/07 10:36:31;;;;;;;11.20;10.07;;;;;;;;;;1747972;28;20846;-72
2024/01/07 10:37:23;;;;;;;14.25;12.85;;;;;;;;;;1744113;28;20837;-73
2024/01/07 10:38:15;;;;;;;9.98;8.98;;;;;;;;;;1741101;28;20195;-74
2024/01/07 10:39:06;;;;;;;9.30;8.40;;;;;;;;;;1743059;28;20214;-73
2024/01/07 10:40:00;;;;;;;16.23;14.38;;;;;;;;;;1747953;28;20656;-73
2024/01/07 10:40:56;;;;;;;10.60;9.57;;;;;;;;;;1746741;28;20198;-73
2024/01/07 10:41:48;;;;;;;10.07;9.10;;;;;;;;;;1742251;28;20207;-72
2024/01/07 10:42:40;;;;;;;9.18;8.27;;;;;;;;;;1747326;28;20186;-73
2024/01/07 10:43:33;;;;;;;11.50;10.40;;;;;;;;;;1741251;28;20214;-72
2024/01/07 10:44:27;;;;;;;8.20;7.50;;;;;;;;;;1748115;28;20291;-73
2024/01/07 10:45:18;;;;;;;9.43;8.52;;;;;;;;;;1741458;28;20237;-72
2024/01/07 10:46:10;;;;;;;9.25;8.18;;;;;;;;;;1741070;28;20199;-73
2024/01/07 10:47:05;;;;;;;9.93;8.40;;;;;;;;;;1745597;28;20226;-72
2024/01/07 10:48:00;;;;;;;9.40;8.50;;;;;;;;;;1747956;28;20678;-73
2024/01/07 10:48:56;;;;;;;10.30;9.30;;;;;;;;;;1747688;28;20206;-73
2024/01/07 10:49:51;;;;;;;9.77;8.77;;;;;;;;;;1747932;28;20202;-73
2024/01/07 10:50:44;;;;;;;8.27;7.57;;;;;;;;;;1744065;28;20678;-73
2024/01/07 10:51:35;;;;;;;8.50;7.70;;;;;;;;;;1740898;28;20203;-73
2024/01/07 10:52:28;;;;;;;8.98;8.13;;;;;;;;;;1743306;28;20653;-72
2024/01/07 10:53:23;;;;;;;8.45;7.65;;;;;;;;;;1747836;28;20198;-71
2024/01/07 10:54:16;;;;;;;8.23;7.40;;;;;;;;;;1746356;28;20218;-73
2024/01/07 10:55:11;;;;;;;8.40;7.60;;;;;;;;;;1741106;28;20273;-73
2024/01/07 10:56:05;;;;;;;7.68;6.95;;;;;;;;;;1741629;28;20211;-73
2024/01/07 10:56:58;;;;;;;8.38;7.57;;;;;;;;;;1747891;28;20245;-73
2024/01/07 10:57:50;;;;;;;9.25;8.32;;;;;;;;;;1746179;28;20198;-75
2024/01/07 10:58:42;;;;;;;8.23;7.53;;;;;;;;;;1747759;28;20207;-73
2024/01/07 10:59:34;;;;;;;8.68;7.88;;;;;;;;;;1747458;28;20244;-76
2024/01/07 11:00:26;;;;;;;9.50;7.30;;;;;;;;;;1747894;28;20209;-75
2024/01/07 11:01:17;;;;;;;8.40;7.60;;;;;;;;;;1748071;28;20202;-74
2024/01/07 11:02:09;;;;;;;8.70;7.80;;;;;;;;;;1744152;28;20315;-74
2024/01/07 11:03:06;;;;;;;9.20;8.25;;;;;;;;;;1740920;28;20203;-74
2024/01/07 11:03:59;;;;;;;8.90;8.00;;;;;;;;;;1743919;28;20206;-75